createdAt,value
2023-03-04T00:00:46.257Z,2.85
2023-03-04T00:03:15.698Z,2.51
2023-03-04T00:05:43.005Z,2.69
2023-03-04T00:08:10.153Z,3.01
2023-03-04T00:10:37.624Z,2.58
2023-03-04T00:13:04.789Z,2.30
2023-03-04T00:15:31.954Z,2.24
2023-03-04T00:17:59.421Z,2.01
2023-03-04T00:20:45.247Z,2.13
2023-03-04T00:23:12.859Z,2.19
2023-03-04T00:25:41.462Z,1.70
2023-03-04T00:28:10.416Z,1.83
2023-03-04T00:30:37.877Z,2.21
2023-03-04T00:33:05.046Z,2.14
2023-03-04T00:35:32.262Z,2.32
2023-03-04T00:37:59.693Z,2.52
2023-03-04T00:40:26.901Z,2.50
2023-03-04T00:42:54.106Z,2.51
2023-03-04T00:45:21.543Z,2.71
2023-03-04T00:47:48.674Z,2.59
2023-03-04T00:50:15.986Z,2.82
2023-03-04T00:52:43.529Z,2.81
2023-03-04T00:55:10.846Z,2.48
2023-03-04T00:57:38.166Z,2.51
2023-03-04T01:00:07.341Z,2.56
2023-03-04T01:02:35.162Z,2.29
2023-03-04T01:05:02.349Z,2.09
2023-03-04T01:07:29.829Z,2.20
2023-03-04T01:09:57.315Z,1.98
2023-03-04T01:12:24.958Z,1.96
2023-03-04T01:14:52.450Z,1.98
2023-03-04T01:17:19.730Z,2.08
2023-03-04T01:19:47.751Z,2.05
2023-03-04T01:22:16.702Z,1.90
2023-03-04T01:24:44.024Z,2.34
2023-03-04T01:27:11.377Z,2.09
2023-03-04T01:29:38.810Z,2.56
2023-03-04T01:32:06.055Z,2.64
2023-03-04T01:34:33.250Z,1.79
2023-03-04T01:37:04.680Z,1.93
2023-03-04T01:39:31.902Z,1.84
2023-03-04T01:41:59.072Z,1.69
2023-03-04T01:44:26.538Z,1.85
2023-03-04T01:46:54.298Z,1.84
2023-03-04T01:49:21.752Z,1.70
2023-03-04T01:51:50.496Z,1.70
2023-03-04T01:54:17.676Z,1.28
2023-03-04T01:56:45.466Z,1.31
2023-03-04T01:59:12.930Z,1.58
2023-03-04T02:01:41.301Z,1.58
2023-03-04T02:04:08.934Z,2.04
2023-03-04T02:06:37.510Z,1.89
2023-03-04T02:09:04.851Z,2.08
2023-03-04T02:11:33.133Z,2.36
2023-03-04T02:14:01.023Z,2.19
2023-03-04T02:16:28.230Z,2.16
2023-03-04T02:18:55.484Z,1.91
2023-03-04T02:21:23.743Z,2.24
2023-03-04T02:24:06.433Z,2.25
2023-03-04T02:26:35.180Z,1.63
2023-03-04T02:29:02.791Z,1.81
2023-03-04T02:31:34.671Z,1.63
2023-03-04T02:34:02.894Z,1.79
2023-03-04T02:36:30.218Z,1.50
2023-03-04T02:39:01.398Z,2.14
2023-03-04T02:41:29.964Z,2.10
2023-03-04T02:43:58.152Z,1.58
2023-03-04T02:46:25.404Z,1.47
2023-03-04T02:48:53.100Z,1.58
2023-03-04T02:51:20.270Z,1.55
2023-03-04T02:53:48.269Z,1.41
2023-03-04T02:56:15.874Z,1.54
2023-03-04T02:58:43.058Z,1.49
2023-03-04T03:01:11.637Z,1.33
2023-03-04T03:03:39.298Z,2.00
2023-03-04T03:06:06.576Z,2.03
2023-03-04T03:08:33.852Z,1.89
2023-03-04T03:11:01.463Z,1.26
2023-03-04T03:13:29.969Z,1.28
2023-03-04T03:15:57.126Z,1.42
2023-03-04T03:18:24.682Z,1.64
2023-03-04T03:20:51.876Z,1.63
2023-03-04T03:23:20.991Z,1.45
2023-03-04T03:25:48.409Z,1.81
2023-03-04T03:28:15.735Z,1.84
2023-03-04T03:30:42.926Z,2.01
2023-03-04T03:33:10.363Z,1.75
2023-03-04T03:35:38.357Z,1.51
2023-03-04T03:38:06.937Z,1.12
2023-03-04T03:40:34.468Z,1.41
2023-03-04T03:43:01.725Z,2.17
2023-03-04T03:45:28.880Z,2.23
2023-03-04T03:47:56.491Z,2.00
2023-03-04T03:50:23.680Z,2.37
2023-03-04T03:52:50.873Z,2.33
2023-03-04T03:55:18.333Z,2.70
2023-03-04T03:57:45.500Z,2.16
2023-03-04T04:00:12.893Z,2.78
2023-03-04T04:02:40.866Z,1.98
2023-03-04T04:05:08.537Z,1.99
2023-03-04T04:07:36.798Z,3.45
2023-03-04T04:10:05.562Z,4.03
2023-03-04T04:12:32.997Z,3.84
2023-03-04T04:15:01.109Z,4.13
2023-03-04T04:17:28.907Z,4.09
2023-03-04T04:19:56.300Z,4.16
2023-03-04T04:22:23.710Z,3.65
2023-03-04T04:24:51.425Z,4.25
2023-03-04T04:27:18.880Z,4.33
2023-03-04T04:29:46.200Z,4.65
2023-03-04T04:32:13.824Z,4.52
2023-03-04T04:34:41.300Z,4.98
2023-03-04T04:37:08.655Z,4.88
2023-03-04T04:39:36.162Z,4.83
2023-03-04T04:42:03.627Z,4.39
2023-03-04T04:44:30.870Z,3.90
2023-03-04T04:46:58.315Z,5.49
2023-03-04T04:49:26.660Z,6.02
2023-03-04T04:51:53.839Z,5.61
2023-03-04T04:54:21.259Z,4.27
2023-03-04T04:56:48.444Z,5.50
2023-03-04T04:59:15.764Z,4.50
2023-03-04T05:01:43.433Z,5.10
2023-03-04T05:04:11.763Z,4.77
2023-03-04T05:06:39.347Z,4.75
2023-03-04T05:09:07.321Z,4.58
2023-03-04T05:11:34.824Z,4.31
2023-03-04T05:14:02.193Z,4.90
2023-03-04T05:16:29.919Z,4.55
2023-03-04T05:18:57.388Z,4.52
2023-03-04T05:21:24.942Z,4.38
2023-03-04T05:23:52.582Z,4.85
2023-03-04T05:26:20.968Z,4.49
2023-03-04T05:28:48.310Z,4.80
2023-03-04T05:31:16.558Z,4.47
2023-03-04T05:33:43.880Z,4.27
2023-03-04T05:36:11.072Z,4.19
2023-03-04T05:38:38.583Z,3.88
2023-03-04T05:41:06.464Z,4.06
2023-03-04T05:43:36.075Z,4.08
2023-03-04T05:46:04.455Z,4.43
2023-03-04T05:48:32.026Z,4.01
2023-03-04T05:51:00.733Z,4.26
2023-03-04T05:53:28.714Z,3.83
2023-03-04T05:55:56.214Z,4.40
2023-03-04T05:58:23.673Z,4.49
2023-03-04T06:00:51.493Z,4.34
2023-03-04T06:03:22.127Z,4.16
2023-03-04T06:05:49.525Z,3.99
2023-03-04T06:08:16.961Z,4.31
2023-03-04T06:10:45.418Z,4.08
2023-03-04T06:13:12.974Z,4.10
2023-03-04T06:15:40.417Z,4.38
2023-03-04T06:18:08.352Z,4.37
2023-03-04T06:20:35.625Z,4.46
2023-03-04T06:23:03.849Z,4.77
2023-03-04T06:25:31.746Z,5.27
2023-03-04T06:27:59.583Z,4.14
2023-03-04T06:30:27.457Z,3.93
2023-03-04T06:32:55.179Z,4.36
2023-03-04T06:35:22.506Z,4.68
2023-03-04T06:37:49.854Z,4.28
2023-03-04T06:40:17.565Z,5.20
2023-03-04T06:42:44.950Z,5.26
2023-03-04T06:45:12.390Z,4.87
2023-03-04T06:47:40.387Z,4.35
2023-03-04T06:50:07.855Z,4.91
2023-03-04T06:52:35.164Z,5.05
2023-03-04T06:55:02.613Z,3.90
2023-03-04T06:57:30.071Z,5.81
2023-03-04T06:59:57.367Z,5.47
2023-03-04T07:02:25.021Z,4.89
2023-03-04T07:04:52.299Z,5.10
2023-03-04T07:07:19.584Z,5.94
2023-03-04T07:09:47.423Z,5.57
2023-03-04T07:12:14.915Z,5.26
2023-03-04T07:14:42.306Z,5.27
2023-03-04T07:17:10.232Z,5.05
2023-03-04T07:19:38.105Z,5.08
2023-03-04T07:22:05.519Z,5.89
2023-03-04T07:24:33.146Z,6.64
2023-03-04T07:27:00.713Z,6.74
2023-03-04T07:29:28.204Z,7.04
2023-03-04T07:31:56.005Z,6.18
2023-03-04T07:34:23.400Z,5.67
2023-03-04T07:36:50.700Z,5.83
2023-03-04T07:39:18.372Z,6.27
2023-03-04T07:41:45.802Z,6.34
2023-03-04T07:44:13.639Z,5.49
2023-03-04T07:46:41.425Z,5.93
2023-03-04T07:49:08.804Z,6.26
2023-03-04T07:51:37.153Z,6.33
2023-03-04T07:54:04.859Z,5.97
2023-03-04T07:56:33.710Z,6.27
2023-03-04T07:59:01.644Z,6.41
2023-03-04T08:01:37.410Z,6.35
2023-03-04T08:04:06.618Z,6.84
2023-03-04T08:06:36.086Z,6.94
2023-03-04T08:09:08.797Z,7.17
2023-03-04T08:11:37.855Z,6.70
2023-03-04T08:14:05.334Z,7.00
2023-03-04T08:16:33.137Z,7.41
2023-03-04T08:19:02.503Z,7.72
2023-03-04T08:21:31.072Z,7.97
2023-03-04T08:24:02.451Z,7.59
2023-03-04T08:26:33.976Z,7.57
2023-03-04T08:29:02.953Z,6.98
2023-03-04T08:31:31.596Z,8.12
2023-03-04T08:33:59.008Z,8.15
2023-03-04T08:36:26.462Z,7.90
2023-03-04T08:38:54.160Z,7.52
2023-03-04T08:41:22.792Z,7.39
2023-03-04T08:43:50.258Z,7.71
2023-03-04T08:46:18.142Z,7.87
2023-03-04T08:48:45.538Z,7.67
2023-03-04T08:51:14.627Z,7.77
2023-03-04T08:53:45.294Z,7.81
2023-03-04T08:56:13.183Z,7.93
2023-03-04T08:58:40.866Z,8.41
2023-03-04T09:01:10.687Z,8.08
2023-03-04T09:03:38.817Z,8.41
2023-03-04T09:06:09.149Z,8.74
2023-03-04T09:08:37.044Z,9.05
2023-03-04T09:11:04.550Z,8.91
2023-03-04T09:13:32.607Z,8.95
2023-03-04T09:16:01.091Z,9.23
2023-03-04T09:18:29.043Z,9.39
2023-03-04T09:20:56.434Z,9.22
2023-03-04T09:23:24.134Z,9.05
2023-03-04T09:25:51.630Z,9.30
2023-03-04T09:31:11.873Z,8.87
2023-03-04T09:33:41.566Z,9.17
2023-03-04T09:36:11.343Z,9.18
2023-03-04T09:38:39.323Z,8.60
2023-03-04T09:41:16.223Z,9.60
2023-03-04T09:43:44.566Z,9.43
2023-03-04T09:46:16.167Z,8.97
2023-03-04T09:48:47.909Z,9.36
2023-03-04T09:51:17.989Z,9.46
2023-03-04T09:53:48.697Z,9.03
2023-03-04T09:56:16.265Z,9.11
2023-03-04T09:58:48.785Z,9.11
2023-03-04T10:01:22.841Z,9.11
2023-03-04T10:04:05.674Z,10.03
2023-03-04T10:06:33.997Z,10.14
2023-03-04T10:09:05.179Z,9.87
2023-03-04T10:11:41.007Z,9.73
2023-03-04T10:14:19.837Z,10.40
2023-03-04T10:16:53.713Z,9.75
2023-03-04T10:19:44.291Z,9.47
2023-03-04T10:22:36.941Z,10.50
2023-03-04T10:25:19.655Z,10.52
2023-03-04T10:27:59.928Z,10.70
2023-03-04T10:31:01.510Z,11.36
2023-03-04T10:33:39.948Z,10.96
2023-03-04T10:36:36.853Z,11.11
2023-03-04T10:39:19.552Z,11.84
2023-03-04T10:42:14.397Z,11.58
2023-03-04T10:44:51.405Z,12.04
2023-03-04T10:47:19.122Z,11.29
2023-03-04T10:50:00.777Z,12.62
2023-03-04T10:52:29.788Z,12.43
2023-03-04T10:55:06.549Z,12.18
2023-03-04T10:57:41.905Z,11.99
2023-03-04T11:00:18.329Z,11.92
2023-03-04T11:02:47.478Z,11.86
2023-03-04T11:05:14.779Z,12.17
2023-03-04T11:07:55.247Z,11.85
2023-03-04T11:10:38.887Z,11.88
2023-03-04T11:13:22.013Z,13.05
2023-03-04T11:15:51.428Z,12.53
2023-03-04T11:18:43.872Z,11.99
2023-03-04T11:21:20.132Z,12.47
2023-03-04T11:23:52.260Z,11.96
2023-03-04T11:26:27.571Z,11.65
2023-03-04T11:29:16.008Z,12.99
2023-03-04T11:31:50.303Z,13.28
2023-03-04T11:34:17.632Z,12.85
2023-03-04T11:36:57.401Z,13.21
2023-03-04T11:39:30.720Z,13.13
2023-03-04T11:42:23.478Z,12.61
2023-03-04T11:44:51.887Z,12.09
2023-03-04T11:47:28.923Z,11.42
2023-03-04T11:50:35.095Z,12.05
2023-03-04T11:53:02.737Z,12.58
2023-03-04T11:55:35.838Z,12.57
2023-03-04T11:58:21.991Z,12.75
2023-03-04T12:01:10.433Z,12.07
2023-03-04T12:04:12.496Z,12.43
2023-03-04T12:07:01.292Z,12.03
2023-03-04T12:09:51.835Z,12.32
2023-03-04T12:12:53.305Z,12.45
2023-03-04T12:15:29.712Z,11.80
2023-03-04T12:18:18.676Z,12.84
2023-03-04T12:20:59.885Z,12.14
2023-03-04T12:23:27.227Z,12.35
2023-03-04T12:26:27.071Z,11.91
2023-03-04T12:28:56.990Z,11.52
2023-03-04T12:31:30.574Z,12.86
2023-03-04T12:34:19.441Z,12.09
2023-03-04T12:37:20.236Z,12.93
2023-03-04T12:40:26.702Z,13.11
2023-03-04T12:43:16.084Z,12.87
2023-03-04T12:46:05.138Z,13.46
2023-03-04T12:48:37.660Z,13.03
2023-03-04T12:51:15.939Z,12.86
2023-03-04T12:53:58.619Z,13.86
2023-03-04T18:09:35.143Z,6.49
2023-03-04T18:12:05.415Z,6.49
2023-03-04T18:14:33.813Z,6.45
2023-03-04T18:17:02.321Z,6.20
2023-03-04T18:19:30.923Z,6.36
2023-03-04T18:21:59.339Z,6.32
2023-03-04T18:24:27.057Z,6.29
2023-03-04T18:33:20.609Z,5.39
2023-03-04T18:35:49.587Z,6.00
2023-03-04T18:38:17.852Z,5.95
2023-03-04T18:40:45.702Z,5.45
2023-03-04T18:43:14.149Z,5.51
2023-03-04T18:45:44.395Z,5.38
2023-03-04T18:48:12.802Z,5.71
2023-03-04T18:50:43.629Z,5.83
2023-03-04T18:53:12.698Z,5.74
2023-03-04T18:55:43.145Z,5.76
2023-03-04T18:58:12.273Z,4.91
2023-03-04T19:00:40.344Z,4.90
2023-03-04T19:03:10.070Z,4.78
2023-03-04T19:05:39.775Z,4.67
2023-03-04T19:08:08.175Z,4.79
2023-03-04T19:10:36.554Z,4.56
2023-03-04T19:13:05.924Z,4.41
2023-03-04T19:15:38.051Z,3.95
2023-03-04T19:18:07.237Z,3.90
2023-03-04T19:20:41.091Z,4.44
2023-03-04T19:23:10.678Z,4.05
2023-03-04T19:25:39.426Z,4.10
2023-03-04T19:28:07.642Z,4.19
2023-03-04T19:30:42.243Z,4.46
2023-03-04T19:33:10.990Z,4.29
2023-03-04T19:35:41.896Z,4.18
2023-03-04T19:38:10.536Z,4.16
2023-03-04T19:40:40.464Z,4.42
2023-03-04T19:43:08.805Z,4.14
2023-03-04T19:45:38.431Z,4.36
2023-03-04T19:48:06.931Z,4.22
2023-03-04T19:50:35.098Z,3.93
2023-03-04T19:53:03.312Z,4.04
2023-03-04T19:55:32.110Z,4.30
2023-03-04T19:58:01.125Z,3.53
2023-03-04T20:00:29.814Z,4.13
2023-03-04T20:02:58.950Z,3.79
2023-03-04T20:05:29.559Z,4.97
2023-03-04T20:07:57.665Z,4.75
2023-03-04T20:10:26.757Z,5.51
2023-03-04T20:12:58.919Z,5.42
2023-03-04T20:15:28.161Z,5.08
2023-03-04T20:18:00.312Z,5.22
2023-03-04T20:20:29.880Z,5.29
2023-03-04T20:22:59.581Z,5.81
2023-03-04T20:25:29.473Z,5.81
2023-03-04T20:27:59.298Z,5.41
2023-03-04T20:30:30.065Z,5.81
2023-03-04T20:32:58.409Z,5.80
2023-03-04T20:35:26.486Z,6.04
2023-03-04T20:37:55.168Z,5.80
2023-03-04T20:40:24.520Z,5.88
2023-03-04T20:42:53.260Z,5.79
2023-03-04T20:45:22.668Z,6.52
2023-03-04T20:47:52.627Z,6.01
2023-03-04T20:50:20.528Z,6.28
2023-03-04T20:52:48.748Z,6.13
2023-03-04T20:55:16.663Z,6.02
2023-03-04T20:57:44.935Z,6.18
2023-03-04T21:00:15.743Z,5.96
2023-03-04T21:02:44.351Z,6.05
2023-03-04T21:05:14.276Z,5.79
2023-03-04T21:07:43.252Z,5.79
2023-03-04T21:10:11.600Z,5.56
2023-03-04T21:12:39.923Z,5.41
2023-03-04T21:15:07.954Z,4.76
2023-03-04T21:17:36.781Z,4.77
2023-03-04T21:20:04.949Z,4.97
2023-03-04T21:22:32.465Z,4.08
2023-03-04T21:25:03.394Z,4.31
2023-03-04T21:27:31.479Z,4.43
2023-03-04T21:29:59.114Z,3.23
2023-03-04T21:32:28.833Z,4.53
2023-03-04T21:34:58.236Z,4.91
2023-03-04T21:37:26.100Z,4.99
2023-03-04T21:39:54.342Z,4.51
2023-03-04T21:42:25.982Z,4.73
2023-03-04T21:44:54.005Z,4.34
2023-03-04T21:47:21.624Z,3.79
2023-03-04T21:49:49.531Z,3.54
2023-03-04T21:52:17.809Z,3.84
2023-03-04T21:54:45.099Z,3.81
2023-03-04T21:57:14.168Z,3.68
2023-03-04T21:59:42.026Z,3.73
2023-03-04T22:02:14.378Z,3.68
2023-03-04T22:04:42.455Z,3.43
2023-03-04T22:07:09.960Z,3.21
2023-03-04T22:09:37.801Z,3.77
2023-03-04T22:12:06.232Z,4.06
2023-03-04T22:14:33.812Z,3.76
2023-03-04T22:17:01.271Z,3.51
2023-03-04T22:19:31.853Z,3.50
2023-03-04T22:21:59.823Z,3.33
2023-03-04T22:24:27.573Z,3.33
2023-03-04T22:26:57.623Z,3.33
2023-03-04T22:29:25.050Z,3.30
2023-03-04T22:31:52.465Z,3.16
2023-03-04T22:34:20.211Z,3.05
2023-03-04T22:36:49.260Z,3.08
2023-03-04T22:39:21.188Z,3.20
2023-03-04T22:41:49.028Z,2.96
2023-03-04T22:44:16.475Z,2.97
2023-03-04T22:46:44.555Z,2.96
2023-03-04T22:49:13.651Z,2.94
2023-03-04T22:51:43.775Z,2.99
2023-03-04T22:54:15.708Z,3.02
2023-03-04T22:56:44.018Z,3.16
2023-03-04T22:59:11.475Z,3.14
2023-03-04T23:01:38.913Z,3.14
2023-03-04T23:04:06.658Z,3.08
2023-03-04T23:06:34.595Z,3.02
2023-03-04T23:09:01.970Z,3.05
2023-03-04T23:11:31.801Z,2.93
2023-03-04T23:14:02.116Z,3.05
2023-03-04T23:16:29.992Z,2.93
2023-03-04T23:18:59.396Z,3.27
2023-03-04T23:21:28.404Z,2.98
2023-03-04T23:23:56.168Z,2.92
2023-03-04T23:26:26.245Z,3.10
2023-03-04T23:28:55.757Z,2.89
2023-03-04T23:31:23.636Z,2.86
2023-03-04T23:33:51.170Z,3.09
2023-03-04T23:36:19.782Z,2.87
2023-03-04T23:38:48.516Z,2.92
2023-03-04T23:41:18.364Z,2.89
2023-03-04T23:43:46.975Z,2.86
2023-03-04T23:46:15.377Z,2.92
2023-03-04T23:48:46.516Z,2.88
2023-03-04T23:51:15.292Z,2.97
2023-03-04T23:53:43.495Z,2.89
2023-03-04T23:56:12.427Z,3.01
2023-03-04T23:58:41.317Z,3.06
